Time;durP1;ratioP1;P1;durP2;ratioP2;P2;SDS_P1;SDS_P2;PMS_P1;PMS_P2;Temp;Humidity;BMP_temperature;BMP_pressure;BME280_temperature;BME280_humidity;BME280_pressure;Samples;Min_cycle;Max_cycle;Signal;HPM_P1;HPM_P2
2024/01/17 00:02:04;;;;;;;6.28;2.22;;;;;;;;;;5018343;28;20049;-66
2024/01/17 00:04:30;;;;;;;4.63;2.22;;;;;;;;;;5021028;28;20036;-66
2024/01/17 00:06:57;;;;;;;5.78;2.00;;;;;;;;;;5020673;28;20037;-64
2024/01/17 00:09:23;;;;;;;8.45;2.40;;;;;;;;;;5021399;28;20055;-64
2024/01/17 00:11:50;;;;;;;8.45;2.45;;;;;;;;;;5020954;28;20137;-63
2024/01/17 00:14:16;;;;;;;5.78;2.05;;;;;;;;;;5020627;28;20132;-64
2024/01/17 00:16:42;;;;;;;6.25;2.33;;;;;;;;;;5025502;28;20040;-64
2024/01/17 00:19:08;;;;;;;6.10;2.15;;;;;;;;;;5016184;28;20060;-64
2024/01/17 00:21:34;;;;;;;8.25;2.70;;;;;;;;;;5031299;28;20052;-64
2024/01/17 00:24:00;;;;;;;6.35;2.15;;;;;;;;;;5029768;28;20064;-64
2024/01/17 00:26:26;;;;;;;7.10;2.40;;;;;;;;;;5030771;28;20037;-63
2024/01/17 00:28:52;;;;;;;7.55;2.45;;;;;;;;;;5031576;28;20481;-64
2024/01/17 00:31:18;;;;;;;8.50;2.63;;;;;;;;;;5027188;28;20847;-64
2024/01/17 00:33:44;;;;;;;7.32;2.67;;;;;;;;;;5028517;28;20432;-64
2024/01/17 00:36:11;;;;;;;9.00;2.47;;;;;;;;;;5028849;28;20044;-64
2024/01/17 00:38:37;;;;;;;6.07;2.58;;;;;;;;;;5027724;28;20033;-64
2024/01/17 00:41:05;;;;;;;8.18;2.80;;;;;;;;;;5034771;28;20028;-63
2024/01/17 00:43:32;;;;;;;8.95;3.30;;;;;;;;;;5037133;28;20063;-64
2024/01/17 00:45:59;;;;;;;7.70;2.85;;;;;;;;;;5032734;28;20040;-64
2024/01/17 00:48:25;;;;;;;9.38;2.60;;;;;;;;;;5032478;28;20064;-64
2024/01/17 00:50:51;;;;;;;6.70;2.67;;;;;;;;;;5036764;28;20052;-64
2024/01/17 00:53:17;;;;;;;7.07;3.17;;;;;;;;;;5036043;28;20833;-64
2024/01/17 00:55:43;;;;;;;9.32;3.10;;;;;;;;;;5031310;28;20040;-64
2024/01/17 00:58:09;;;;;;;8.55;2.92;;;;;;;;;;5029535;28;20171;-64
2024/01/17 01:00:35;;;;;;;7.13;3.10;;;;;;;;;;5029854;28;20131;-64
2024/01/17 01:03:01;;;;;;;10.38;3.40;;;;;;;;;;5030020;28;20136;-64
2024/01/17 01:05:27;;;;;;;8.90;3.15;;;;;;;;;;5033183;28;20163;-64
2024/01/17 01:07:53;;;;;;;10.52;3.08;;;;;;;;;;5036472;28;20277;-64
2024/01/17 01:10:20;;;;;;;7.07;3.25;;;;;;;;;;5031641;28;20123;-64
2024/01/17 01:12:46;;;;;;;10.43;3.30;;;;;;;;;;5027047;28;20052;-64
2024/01/17 01:15:12;;;;;;;10.63;4.18;;;;;;;;;;5028720;28;20037;-64
2024/01/17 01:17:39;;;;;;;11.52;3.00;;;;;;;;;;5029015;28;20167;-64
2024/01/17 01:20:06;;;;;;;9.23;3.60;;;;;;;;;;5033027;28;20029;-64
2024/01/17 01:22:33;;;;;;;10.35;3.90;;;;;;;;;;5030983;28;20029;-64
2024/01/17 01:24:59;;;;;;;10.60;3.75;;;;;;;;;;5033116;28;20033;-64
2024/01/17 01:27:25;;;;;;;9.90;3.70;;;;;;;;;;5037088;28;20041;-64
2024/01/17 01:29:51;;;;;;;8.38;4.30;;;;;;;;;;5028679;28;20040;-63
2024/01/17 01:32:17;;;;;;;7.47;3.75;;;;;;;;;;5028140;28;20045;-64
2024/01/17 01:34:43;;;;;;;7.97;3.55;;;;;;;;;;5027905;28;20077;-64
2024/01/17 01:37:09;;;;;;;9.18;4.10;;;;;;;;;;5032283;28;20682;-64
2024/01/17 01:39:35;;;;;;;9.00;3.95;;;;;;;;;;5032921;28;20674;-63
2024/01/17 01:42:02;;;;;;;10.25;3.92;;;;;;;;;;5033108;28;21038;-64
2024/01/17 01:44:28;;;;;;;9.18;3.78;;;;;;;;;;5031905;28;20551;-64
2024/01/17 01:46:55;;;;;;;10.43;4.38;;;;;;;;;;5032494;28;20538;-64
2024/01/17 01:49:21;;;;;;;11.07;4.80;;;;;;;;;;5032129;28;20032;-64
2024/01/17 01:51:48;;;;;;;9.60;4.20;;;;;;;;;;5031142;28;20070;-64
2024/01/17 01:54:17;;;;;;;9.43;4.18;;;;;;;;;;5031272;28;20500;-64
2024/01/17 01:56:43;;;;;;;15.05;5.72;;;;;;;;;;5031184;28;20044;-64
2024/01/17 01:59:10;;;;;;;13.13;4.78;;;;;;;;;;5030951;28;20036;-64
2024/01/17 02:01:36;;;;;;;11.13;4.57;;;;;;;;;;5031061;28;20053;-64
2024/01/17 02:04:02;;;;;;;12.27;4.57;;;;;;;;;;5031269;28;21445;-64
2024/01/17 02:06:33;;;;;;;9.30;5.32;;;;;;;;;;5032224;28;20040;-64
2024/01/17 02:09:00;;;;;;;14.07;5.18;;;;;;;;;;5030891;28;20032;-64
2024/01/17 02:11:30;;;;;;;13.60;5.60;;;;;;;;;;5032899;28;20700;-64
2024/01/17 02:13:56;;;;;;;21.63;5.65;;;;;;;;;;5031315;28;20126;-64
2024/01/17 02:16:26;;;;;;;10.45;5.10;;;;;;;;;;5032117;28;20036;-64
2024/01/17 02:18:52;;;;;;;9.80;5.22;;;;;;;;;;5031511;28;20029;-64
2024/01/17 02:21:19;;;;;;;12.32;5.35;;;;;;;;;;5030860;28;20119;-64
2024/01/17 02:23:49;;;;;;;8.70;5.00;;;;;;;;;;5031231;28;20055;-64
2024/01/17 02:26:15;;;;;;;12.63;5.88;;;;;;;;;;5028171;28;20054;-64
2024/01/17 02:28:41;;;;;;;12.18;5.57;;;;;;;;;;5027837;28;20150;-64
2024/01/17 02:31:07;;;;;;;9.93;5.28;;;;;;;;;;5029024;28;20110;-64
2024/01/17 02:33:34;;;;;;;13.25;5.57;;;;;;;;;;5028906;28;20063;-64
2024/01/17 02:36:00;;;;;;;11.77;5.95;;;;;;;;;;5027840;28;20032;-64
2024/01/17 02:38:26;;;;;;;10.98;5.60;;;;;;;;;;5028860;28;20671;-64
2024/01/17 02:40:52;;;;;;;10.50;5.60;;;;;;;;;;5029229;28;20576;-64
2024/01/17 02:43:18;;;;;;;11.93;5.43;;;;;;;;;;5029668;28;20048;-64
2024/01/17 02:45:44;;;;;;;11.50;5.35;;;;;;;;;;5029749;28;20129;-64
2024/01/17 02:48:10;;;;;;;10.55;6.10;;;;;;;;;;5029799;28;20048;-64
2024/01/17 02:50:36;;;;;;;13.35;6.05;;;;;;;;;;5019376;28;20725;-64
2024/01/17 02:53:02;;;;;;;15.27;5.80;;;;;;;;;;5006303;28;20044;-64
2024/01/17 02:55:28;;;;;;;13.32;5.43;;;;;;;;;;5019682;28;20060;-64
2024/01/17 02:57:54;;;;;;;15.60;5.60;;;;;;;;;;4999394;28;20049;-64
2024/01/17 03:00:21;;;;;;;13.25;5.75;;;;;;;;;;5013525;28;20056;-64
2024/01/17 03:02:48;;;;;;;8.95;4.95;;;;;;;;;;5015655;28;21533;-64
2024/01/17 03:05:14;;;;;;;9.93;4.93;;;;;;;;;;5018244;28;20133;-64
2024/01/17 03:07:40;;;;;;;10.15;5.72;;;;;;;;;;5016026;28;20048;-64
2024/01/17 03:10:07;;;;;;;12.23;5.35;;;;;;;;;;5007128;28;21811;-64
2024/01/17 03:12:33;;;;;;;10.50;5.75;;;;;;;;;;5012784;28;20120;-64
2024/01/17 03:14:59;;;;;;;13.07;5.88;;;;;;;;;;5015382;28;20064;-64
2024/01/17 03:17:26;;;;;;;12.65;6.82;;;;;;;;;;5014582;28;20562;-64
2024/01/17 03:20:05;;;;;;;12.77;5.97;;;;;;;;;;5014432;28;20056;-64
2024/01/17 03:22:38;;;;;;;12.02;5.38;;;;;;;;;;5014183;28;21401;-64
2024/01/17 03:25:12;;;;;;;11.30;5.80;;;;;;;;;;5013771;28;21069;-64
2024/01/17 03:27:38;;;;;;;11.80;5.97;;;;;;;;;;5013252;28;20144;-64
2024/01/17 03:30:05;;;;;;;11.35;5.70;;;;;;;;;;4999317;28;20049;-64
2024/01/17 03:32:31;;;;;;;12.27;5.72;;;;;;;;;;5013310;28;20060;-64
2024/01/17 03:35:04;;;;;;;11.77;5.57;;;;;;;;;;5017096;28;20053;-64
2024/01/17 03:37:30;;;;;;;10.20;5.57;;;;;;;;;;5012437;28;20060;-64
2024/01/17 03:39:57;;;;;;;12.90;6.07;;;;;;;;;;5005592;28;21621;-64
2024/01/17 03:42:23;;;;;;;13.90;6.20;;;;;;;;;;5019003;28;20106;-64
2024/01/17 03:44:56;;;;;;;12.40;6.43;;;;;;;;;;5019460;28;20915;-64
2024/01/17 03:47:29;;;;;;;11.82;6.40;;;;;;;;;;5020915;28;20182;-64
2024/01/17 03:49:55;;;;;;;16.55;7.20;;;;;;;;;;5013319;28;20044;-64
2024/01/17 03:52:21;;;;;;;12.88;6.10;;;;;;;;;;5018758;28;20129;-64
2024/01/17 03:54:54;;;;;;;13.82;7.05;;;;;;;;;;5017703;28;20065;-64
2024/01/17 03:57:27;;;;;;;12.02;6.32;;;;;;;;;;5018434;28;20061;-65
2024/01/17 03:59:53;;;;;;;;;;;;;;;;;;5013955;28;20190;-64
2024/01/17 04:02:19;;;;;;;15.73;7.35;;;;;;;;;;5020226;28;19921;-65
2024/01/17 04:04:47;;;;;;;12.13;6.13;;;;;;;;;;5005145;28;20103;-64
2024/01/17 04:07:22;;;;;;;12.15;6.35;;;;;;;;;;5014459;28;20063;-64
2024/01/17 04:09:48;;;;;;;14.50;6.97;;;;;;;;;;5016885;28;20612;-64
2024/01/17 04:12:14;;;;;;;14.30;7.03;;;;;;;;;;5020581;28;20098;-64
2024/01/17 04:14:40;;;;;;;18.27;7.10;;;;;;;;;;5017104;28;21326;-64
2024/01/17 04:17:06;;;;;;;12.90;6.78;;;;;;;;;;5019753;28;20059;-64
2024/01/17 04:19:39;;;;;;;13.60;6.85;;;;;;;;;;5015900;28;20067;-65
2024/01/17 04:22:05;;;;;;;17.50;7.90;;;;;;;;;;5019911;28;20076;-64
2024/01/17 04:24:31;;;;;;;16.83;6.88;;;;;;;;;;5001681;28;20521;-64
2024/01/17 04:26:57;;;;;;;14.57;6.95;;;;;;;;;;5021253;28;20117;-64
2024/01/17 04:29:23;;;;;;;11.60;7.30;;;;;;;;;;5018070;28;20144;-64
2024/01/17 04:31:49;;;;;;;13.52;7.15;;;;;;;;;;5020761;28;20599;-65
2024/01/17 04:34:15;;;;;;;16.25;6.93;;;;;;;;;;5020347;28;20206;-64
2024/01/17 04:36:49;;;;;;;13.48;7.57;;;;;;;;;;5016432;28;20784;-65
2024/01/17 04:39:22;;;;;;;14.57;7.15;;;;;;;;;;5016574;28;20064;-65
2024/01/17 04:41:54;;;;;;;15.65;7.07;;;;;;;;;;5010460;28;20062;-64
2024/01/17 04:44:20;;;;;;;20.73;7.72;;;;;;;;;;5018360;28;21588;-65
2024/01/17 04:46:46;;;;;;;12.15;7.38;;;;;;;;;;5017689;28;20049;-64
2024/01/17 04:49:12;;;;;;;12.77;7.03;;;;;;;;;;5020234;28;20071;-64
2024/01/17 04:51:40;;;;;;;13.00;7.60;;;;;;;;;;5018308;28;20075;-64
2024/01/17 04:54:07;;;;;;;15.57;6.80;;;;;;;;;;5020116;28;20810;-64
2024/01/17 04:56:33;;;;;;;15.13;8.00;;;;;;;;;;5018686;28;20053;-64
2024/01/17 04:58:59;;;;;;;16.58;7.63;;;;;;;;;;5019356;28;20143;-65
2024/01/17 05:01:25;;;;;;;16.17;6.97;;;;;;;;;;5018171;28;20582;-64
2024/01/17 05:03:51;;;;;;;15.10;7.53;;;;;;;;;;5020429;28;20052;-64
2024/01/17 05:06:18;;;;;;;14.27;7.82;;;;;;;;;;5022727;28;20064;-64
2024/01/17 05:08:44;;;;;;;17.75;7.78;;;;;;;;;;5020035;28;21037;-64
2024/01/17 05:11:10;;;;;;;17.00;7.72;;;;;;;;;;5023797;28;20057;-64
2024/01/17 05:13:49;;;;;;;14.10;6.63;;;;;;;;;;5019550;28;20060;-64
2024/01/17 05:16:16;;;;;;;15.10;7.40;;;;;;;;;;5019783;28;20101;-64
2024/01/17 05:18:42;;;;;;;12.98;7.00;;;;;;;;;;5020766;28;20056;-64
2024/01/17 05:21:08;;;;;;;16.02;6.70;;;;;;;;;;5022350;28;20049;-64
2024/01/17 05:23:41;;;;;;;15.35;6.80;;;;;;;;;;5016155;28;20093;-64
2024/01/17 05:26:14;;;;;;;17.67;8.18;;;;;;;;;;5016494;28;20071;-64
2024/01/17 05:28:47;;;;;;;13.65;7.57;;;;;;;;;;5018550;28;22399;-65
2024/01/17 05:31:20;;;;;;;15.88;7.82;;;;;;;;;;5020910;28;20045;-65
2024/01/17 05:33:53;;;;;;;15.15;6.85;;;;;;;;;;5021000;28;20052;-64
2024/01/17 05:36:25;;;;;;;13.68;7.88;;;;;;;;;;5021164;28;20060;-65
2024/01/17 05:38:51;;;;;;;13.80;7.28;;;;;;;;;;5022563;28;20048;-65
2024/01/17 05:41:17;;;;;;;14.75;8.45;;;;;;;;;;5022510;28;20083;-64
2024/01/17 05:43:43;;;;;;;11.98;6.25;;;;;;;;;;5018790;28;20053;-64
2024/01/17 05:46:09;;;;;;;15.43;7.57;;;;;;;;;;5013201;28;20057;-65
2024/01/17 05:48:35;;;;;;;13.80;7.53;;;;;;;;;;5022149;28;20060;-64
2024/01/17 05:51:01;;;;;;;13.32;7.18;;;;;;;;;;5018850;28;20057;-65
2024/01/17 05:53:27;;;;;;;14.25;7.50;;;;;;;;;;5003616;28;21166;-64
2024/01/17 05:55:53;;;;;;;12.68;7.45;;;;;;;;;;5003800;28;20049;-64
2024/01/17 05:58:19;;;;;;;16.23;7.68;;;;;;;;;;5012874;28;20064;-64
2024/01/17 06:01:07;;;;;;;15.13;7.13;;;;;;;;;;5011631;28;20079;-64
2024/01/17 06:03:33;;;;;;;16.05;8.07;;;;;;;;;;5022003;28;20814;-64
2024/01/17 06:05:59;;;;;;;13.80;7.10;;;;;;;;;;5005985;28;21954;-64
2024/01/17 06:08:25;;;;;;;14.75;6.95;;;;;;;;;;5020063;28;20086;-64
2024/01/17 06:10:51;;;;;;;15.15;8.27;;;;;;;;;;5022053;28;20744;-64
2024/01/17 06:13:17;;;;;;;16.02;7.57;;;;;;;;;;5024188;28;20548;-64
2024/01/17 06:15:50;;;;;;;12.63;7.10;;;;;;;;;;5018236;28;20053;-64
2024/01/17 06:18:16;;;;;;;15.88;7.65;;;;;;;;;;5021796;28;20076;-64
2024/01/17 06:20:42;;;;;;;12.88;7.25;;;;;;;;;;5019701;28;20106;-64
2024/01/17 06:23:15;;;;;;;15.75;7.63;;;;;;;;;;4744059;28;7972496;-64
2024/01/17 06:25:54;;;;;;;14.93;7.80;;;;;;;;;;5018054;28;20306;-64
2024/01/17 06:28:20;;;;;;;12.57;6.75;;;;;;;;;;5021125;28;20052;-64
2024/01/17 06:30:59;;;;;;;12.60;7.57;;;;;;;;;;5020835;28;20061;-64
2024/01/17 06:33:25;;;;;;;13.93;7.10;;;;;;;;;;5017884;28;20048;-65
2024/01/17 06:35:52;;;;;;;14.75;7.80;;;;;;;;;;5019556;28;20049;-64
2024/01/17 06:38:18;;;;;;;12.85;7.40;;;;;;;;;;5021242;28;20148;-65
2024/01/17 06:40:44;;;;;;;13.70;7.78;;;;;;;;;;5003629;28;20178;-65
2024/01/17 06:43:10;;;;;;;13.57;7.72;;;;;;;;;;5022028;28;20098;-64
2024/01/17 06:45:50;;;;;;;15.13;7.57;;;;;;;;;;4994310;28;20054;-64
2024/01/17 06:48:16;;;;;;;14.98;6.57;;;;;;;;;;5018779;28;20666;-64
2024/01/17 06:50:42;;;;;;;11.88;6.85;;;;;;;;;;5000655;28;20137;-64
2024/01/17 06:53:08;;;;;;;11.13;7.45;;;;;;;;;;5005592;28;20590;-64
2024/01/17 06:55:41;;;;;;;13.15;7.63;;;;;;;;;;5023629;28;21904;-64
2024/01/17 06:58:07;;;;;;;12.57;6.47;;;;;;;;;;5021063;28;20064;-64
2024/01/17 07:00:33;;;;;;;19.42;9.20;;;;;;;;;;5018174;28;20123;-64
2024/01/17 07:02:59;;;;;;;14.75;7.47;;;;;;;;;;5020581;28;20057;-66
2024/01/17 07:05:32;;;;;;;14.82;7.05;;;;;;;;;;5016404;28;21858;-65
2024/01/17 07:08:12;;;;;;;14.63;6.85;;;;;;;;;;5025836;28;20059;-66
2024/01/17 07:10:39;;;;;;;15.20;7.57;;;;;;;;;;5024065;28;20510;-65
2024/01/17 07:13:05;;;;;;;15.32;7.88;;;;;;;;;;5031664;28;20049;-65
2024/01/17 07:15:31;;;;;;;12.60;6.82;;;;;;;;;;5027185;28;20660;-66
2024/01/17 07:18:11;;;;;;;12.35;7.20;;;;;;;;;;5029255;28;20064;-65
2024/01/17 07:20:50;;;;;;;12.23;7.13;;;;;;;;;;5025969;28;20106;-65
2024/01/17 07:23:23;;;;;;;11.57;6.13;;;;;;;;;;5025580;28;20056;-65
2024/01/17 07:25:49;;;;;;;12.27;6.53;;;;;;;;;;5019084;28;20063;-65
2024/01/17 07:28:15;;;;;;;13.10;6.85;;;;;;;;;;5028398;28;20173;-65
2024/01/17 07:30:41;;;;;;;14.73;6.63;;;;;;;;;;5026312;28;20590;-65
2024/01/17 07:33:08;;;;;;;13.05;6.97;;;;;;;;;;5029838;28;20059;-65
2024/01/17 07:35:34;;;;;;;13.98;6.75;;;;;;;;;;5027292;28;21746;-65
2024/01/17 07:38:07;;;;;;;12.43;6.93;;;;;;;;;;5010145;28;20151;-65
2024/01/17 07:40:40;;;;;;;14.23;6.97;;;;;;;;;;5028965;28;20161;-65
2024/01/17 07:43:06;;;;;;;13.25;6.90;;;;;;;;;;5029171;28;20171;-65
2024/01/17 07:45:32;;;;;;;13.57;7.63;;;;;;;;;;5028533;28;20107;-65
2024/01/17 07:47:58;;;;;;;14.50;7.03;;;;;;;;;;5030678;28;20052;-65
2024/01/17 07:50:24;;;;;;;14.32;7.38;;;;;;;;;;5009154;28;20045;-65
2024/01/17 07:52:50;;;;;;;17.15;7.20;;;;;;;;;;5027894;28;20064;-65
2024/01/17 07:55:16;;;;;;;13.20;6.55;;;;;;;;;;5029263;28;20090;-65
2024/01/17 07:57:42;;;;;;;13.60;7.28;;;;;;;;;;5027940;28;20070;-65
2024/01/17 08:00:08;;;;;;;12.73;6.88;;;;;;;;;;5030520;28;20060;-64
2024/01/17 08:02:35;;;;;;;11.35;6.53;;;;;;;;;;5029440;28;21122;-65
2024/01/17 08:05:08;;;;;;;12.70;6.78;;;;;;;;;;5027208;28;20057;-65
2024/01/17 08:07:41;;;;;;;14.10;7.65;;;;;;;;;;5027454;28;21426;-64
2024/01/17 08:10:07;;;;;;;11.57;6.93;;;;;;;;;;5020567;28;20040;-65
2024/01/17 08:12:40;;;;;;;15.57;6.90;;;;;;;;;;5023844;28;20049;-64
2024/01/17 08:15:08;;;;;;;12.20;6.50;;;;;;;;;;5028133;28;20059;-65
2024/01/17 08:17:34;;;;;;;13.77;7.55;;;;;;;;;;5026757;28;20057;-65
2024/01/17 08:20:00;;;;;;;12.02;6.70;;;;;;;;;;5029814;28;20589;-64
2024/01/17 08:22:26;;;;;;;13.82;6.68;;;;;;;;;;5029034;28;20052;-65
2024/01/17 08:24:52;;;;;;;16.13;6.75;;;;;;;;;;5030455;28;20577;-64
2024/01/17 08:27:18;;;;;;;11.93;6.40;;;;;;;;;;5030776;28;20061;-65
2024/01/17 08:29:46;;;;;;;18.65;7.45;;;;;;;;;;5027053;28;20060;-65
2024/01/17 08:32:26;;;;;;;10.77;6.38;;;;;;;;;;5028144;28;20057;-65
2024/01/17 08:34:52;;;;;;;13.88;7.40;;;;;;;;;;5004616;28;20153;-65
2024/01/17 08:39:44;;;;;;;15.10;7.30;;;;;;;;;;5031589;28;20140;-64
2024/01/17 08:42:11;;;;;;;12.70;6.90;;;;;;;;;;5034589;28;20048;-65
2024/01/17 08:44:38;;;;;;;14.48;7.38;;;;;;;;;;5030120;28;20155;-64
2024/01/17 08:47:11;;;;;;;16.67;7.15;;;;;;;;;;5033258;28;21212;-65
2024/01/17 08:49:40;;;;;;;14.05;7.57;;;;;;;;;;5031797;28;20146;-64
2024/01/17 08:52:07;;;;;;;12.55;6.93;;;;;;;;;;5034188;28;20045;-64
2024/01/17 08:54:33;;;;;;;15.93;7.30;;;;;;;;;;5030313;28;20061;-65
2024/01/17 08:56:59;;;;;;;13.85;7.05;;;;;;;;;;5033259;28;20749;-65
2024/01/17 08:59:32;;;;;;;15.48;7.22;;;;;;;;;;5029796;28;20142;-65
2024/01/17 09:02:11;;;;;;;12.50;7.55;;;;;;;;;;5031728;28;20169;-65
2024/01/17 09:04:37;;;;;;;14.10;6.80;;;;;;;;;;5031659;28;20099;-65
2024/01/17 09:07:16;;;;;;;19.27;7.45;;;;;;;;;;5032959;28;20088;-65
2024/01/17 09:09:55;;;;;;;10.93;6.55;;;;;;;;;;5031316;28;20140;-65
2024/01/17 09:12:34;;;;;;;12.65;6.53;;;;;;;;;;5029090;28;20057;-65
2024/01/17 09:15:00;;;;;;;11.70;6.55;;;;;;;;;;5033161;28;20056;-64
2024/01/17 09:17:27;;;;;;;12.70;6.07;;;;;;;;;;5031115;28;20063;-65
2024/01/17 09:19:53;;;;;;;12.35;5.53;;;;;;;;;;5033926;28;20067;-65
2024/01/17 09:22:19;;;;;;;14.57;5.75;;;;;;;;;;5033808;28;20040;-65
2024/01/17 09:24:52;;;;;;;13.88;6.00;;;;;;;;;;5030483;28;20059;-65
2024/01/17 09:29:45;;;;;;;10.88;5.97;;;;;;;;;;5030298;28;20845;-65
2024/01/17 09:32:12;;;;;;;16.35;6.65;;;;;;;;;;5033789;28;20184;-65
2024/01/17 09:34:39;;;;;;;11.07;5.63;;;;;;;;;;5031553;28;21558;-65
2024/01/17 09:37:12;;;;;;;16.30;6.80;;;;;;;;;;5031579;28;20046;-65
2024/01/17 09:39:38;;;;;;;11.00;6.47;;;;;;;;;;5025948;28;20115;-65
2024/01/17 09:42:06;;;;;;;12.23;6.47;;;;;;;;;;5028021;28;20055;-65
2024/01/17 09:44:32;;;;;;;11.38;6.00;;;;;;;;;;5021460;28;21783;-65
2024/01/17 09:47:12;;;;;;;12.27;6.93;;;;;;;;;;5019448;28;21300;-65
2024/01/17 09:49:39;;;;;;;12.45;6.63;;;;;;;;;;5017994;28;20646;-64
2024/01/17 09:52:06;;;;;;;13.50;7.32;;;;;;;;;;5023470;28;20045;-64
2024/01/17 09:54:41;;;;;;;13.30;6.88;;;;;;;;;;5025979;28;21299;-64
2024/01/17 10:05:50;;;;;;;15.63;6.25;;;;;;;;;;4986532;28;20064;-62
2024/01/17 10:08:18;;;;;;;10.95;5.20;;;;;;;;;;5505425;22;20113;-67
2024/01/17 10:16:11;;;;;;;16.48;6.28;;;;;;;;;;5040212;22;20053;-64
2024/01/17 10:18:37;;;;;;;11.68;6.55;;;;;;;;;;5000567;28;20037;-64
2024/01/17 10:21:04;;;;;;;13.35;6.38;;;;;;;;;;4983090;28;20025;-65
2024/01/17 10:23:30;;;;;;;13.68;6.38;;;;;;;;;;4984185;28;20025;-65
2024/01/17 10:25:56;;;;;;;14.20;5.35;;;;;;;;;;4984684;28;20029;-65
2024/01/17 10:28:23;;;;;;;13.80;6.82;;;;;;;;;;4991307;28;20081;-64
2024/01/17 10:30:50;;;;;;;13.13;6.53;;;;;;;;;;4992514;28;20032;-66
2024/01/17 10:33:16;;;;;;;12.82;6.20;;;;;;;;;;4985922;28;20967;-66
2024/01/17 10:35:42;;;;;;;13.80;6.85;;;;;;;;;;4983564;28;20044;-66
2024/01/17 10:38:08;;;;;;;13.27;5.97;;;;;;;;;;4993481;28;20030;-65
2024/01/17 10:40:34;;;;;;;10.77;5.32;;;;;;;;;;4990023;28;20021;-66
2024/01/17 10:43:09;;;;;;;14.23;6.43;;;;;;;;;;4984392;28;20091;-65
2024/01/17 10:45:35;;;;;;;12.70;6.18;;;;;;;;;;4986127;28;20180;-65
2024/01/17 10:48:02;;;;;;;11.15;6.43;;;;;;;;;;4990218;28;20034;-66
2024/01/17 10:50:28;;;;;;;10.90;6.00;;;;;;;;;;4987018;28;20033;-66
2024/01/17 10:52:58;;;;;;;13.38;7.18;;;;;;;;;;4991715;28;20092;-66
2024/01/17 10:55:26;;;;;;;10.32;5.82;;;;;;;;;;4989743;28;20052;-66
2024/01/17 10:57:54;;;;;;;9.90;5.38;;;;;;;;;;4991362;28;20033;-66
2024/01/17 11:00:26;;;;;;;12.27;6.00;;;;;;;;;;4990941;28;20030;-66
2024/01/17 11:02:52;;;;;;;13.75;5.60;;;;;;;;;;4990404;28;20034;-66
2024/01/17 11:05:20;;;;;;;13.70;6.43;;;;;;;;;;4987490;28;21933;-66
2024/01/17 11:07:47;;;;;;;10.27;5.60;;;;;;;;;;4993302;28;20041;-66
2024/01/17 11:10:13;;;;;;;11.88;5.72;;;;;;;;;;4988544;28;20937;-66
2024/01/17 11:12:40;;;;;;;14.10;5.70;;;;;;;;;;4991457;28;20037;-66
2024/01/17 11:15:06;;;;;;;15.15;5.97;;;;;;;;;;5002154;28;20065;-66
2024/01/17 11:17:37;;;;;;;11.80;5.50;;;;;;;;;;4991657;28;20041;-66
2024/01/17 11:20:10;;;;;;;10.07;5.75;;;;;;;;;;5009100;28;20091;-66
2024/01/17 11:22:36;;;;;;;13.88;5.82;;;;;;;;;;5005630;28;20079;-66
2024/01/17 11:25:16;;;;;;;11.82;5.35;;;;;;;;;;5010545;28;20245;-66
2024/01/17 11:27:54;;;;;;;10.95;5.40;;;;;;;;;;5011548;28;20032;-66
2024/01/17 11:30:29;;;;;;;9.68;5.15;;;;;;;;;;5006732;28;20033;-66
2024/01/17 11:33:10;;;;;;;8.93;5.20;;;;;;;;;;5007534;28;20029;-66
2024/01/17 11:35:46;;;;;;;11.77;5.75;;;;;;;;;;5009094;28;20711;-66
2024/01/17 11:38:13;;;;;;;10.88;5.38;;;;;;;;;;5009945;28;20033;-66
2024/01/17 11:40:40;;;;;;;9.40;5.35;;;;;;;;;;5007290;28;20101;-66
2024/01/17 11:43:07;;;;;;;10.18;4.85;;;;;;;;;;5011464;28;21789;-66
2024/01/17 11:45:33;;;;;;;11.32;5.43;;;;;;;;;;5011401;28;20033;-66
2024/01/17 11:48:12;;;;;;;10.13;4.90;;;;;;;;;;5008965;28;20709;-66
2024/01/17 11:50:38;;;;;;;18.98;5.60;;;;;;;;;;5010283;28;20029;-66
2024/01/17 11:53:05;;;;;;;13.85;6.00;;;;;;;;;;4996920;28;20094;-66
2024/01/17 11:55:31;;;;;;;11.88;5.25;;;;;;;;;;4979488;28;20037;-66
2024/01/17 11:57:57;;;;;;;12.18;4.82;;;;;;;;;;4982944;28;20033;-66
2024/01/17 12:00:25;;;;;;;9.77;4.72;;;;;;;;;;4994473;28;21558;-66
2024/01/17 12:02:51;;;;;;;11.88;5.90;;;;;;;;;;4990924;28;20036;-66
2024/01/17 12:05:17;;;;;;;10.75;5.70;;;;;;;;;;4974937;28;20155;-66
2024/01/17 12:07:49;;;;;;;12.63;5.60;;;;;;;;;;4994069;28;20040;-66
2024/01/17 12:10:15;;;;;;;14.68;5.80;;;;;;;;;;5007052;28;20029;-66
2024/01/17 12:12:42;;;;;;;12.23;6.50;;;;;;;;;;5000337;28;21710;-66
2024/01/17 12:15:12;;;;;;;11.20;5.60;;;;;;;;;;5003130;28;20064;-66
2024/01/17 12:17:39;;;;;;;14.32;6.82;;;;;;;;;;4998196;28;21136;-66
2024/01/17 12:20:06;;;;;;;9.75;5.78;;;;;;;;;;5004032;28;20034;-66
2024/01/17 12:22:32;;;;;;;13.38;6.13;;;;;;;;;;5005958;28;20955;-66
2024/01/17 12:24:59;;;;;;;9.80;5.53;;;;;;;;;;4993897;28;20121;-66
2024/01/17 12:27:30;;;;;;;11.02;5.55;;;;;;;;;;5005012;28;20582;-66
2024/01/17 12:29:57;;;;;;;10.55;5.90;;;;;;;;;;5007122;28;20507;-66
2024/01/17 12:32:23;;;;;;;11.32;5.53;;;;;;;;;;5006691;28;20486;-66
2024/01/17 12:34:50;;;;;;;10.00;5.80;;;;;;;;;;5008496;28;20037;-66
2024/01/17 12:37:16;;;;;;;14.07;5.57;;;;;;;;;;5007906;28;20040;-67
2024/01/17 12:39:42;;;;;;;10.82;5.72;;;;;;;;;;5007644;28;20388;-66
2024/01/17 12:42:08;;;;;;;12.27;5.43;;;;;;;;;;5008123;28;20041;-66
2024/01/17 12:44:35;;;;;;;14.02;7.07;;;;;;;;;;5005128;28;20037;-67
2024/01/17 12:47:01;;;;;;;8.35;5.38;;;;;;;;;;5002787;28;20033;-66
2024/01/17 12:49:30;;;;;;;11.07;5.70;;;;;;;;;;5004823;28;20046;-67
2024/01/17 12:51:56;;;;;;;11.13;5.13;;;;;;;;;;5006729;28;20247;-67
2024/01/17 12:54:23;;;;;;;10.70;5.20;;;;;;;;;;5006865;28;20040;-67
2024/01/17 12:56:51;;;;;;;9.68;5.38;;;;;;;;;;5006876;28;20846;-67
2024/01/17 12:59:17;;;;;;;13.20;5.65;;;;;;;;;;5014727;28;20095;-66
2024/01/17 13:01:43;;;;;;;15.45;5.72;;;;;;;;;;5012414;28;20337;-67
2024/01/17 13:04:09;;;;;;;11.23;5.18;;;;;;;;;;5011501;28;20029;-67
2024/01/17 13:06:48;;;;;;;8.88;5.10;;;;;;;;;;5012042;28;20043;-67
2024/01/17 13:09:19;;;;;;;11.23;6.38;;;;;;;;;;5012181;28;20471;-67
2024/01/17 13:11:47;;;;;;;9.07;5.03;;;;;;;;;;5011563;28;20120;-67
2024/01/17 13:14:20;;;;;;;11.00;5.40;;;;;;;;;;5011345;28;20037;-67
2024/01/17 13:16:46;;;;;;;12.52;5.78;;;;;;;;;;5012895;28;20052;-67
2024/01/17 13:19:13;;;;;;;13.30;5.55;;;;;;;;;;5012143;28;20045;-67
2024/01/17 13:21:43;;;;;;;10.15;5.20;;;;;;;;;;5011433;28;20497;-67
2024/01/17 13:24:10;;;;;;;12.23;6.15;;;;;;;;;;5013111;28;20664;-67
2024/01/17 13:26:36;;;;;;;11.07;5.45;;;;;;;;;;5014435;28;20152;-67
2024/01/17 13:29:06;;;;;;;11.27;5.50;;;;;;;;;;5015693;28;20056;-67
2024/01/17 13:31:32;;;;;;;13.23;5.95;;;;;;;;;;5015825;28;20029;-67
2024/01/17 13:33:59;;;;;;;11.05;5.65;;;;;;;;;;5015020;28;20029;-67
2024/01/17 13:36:27;;;;;;;13.25;5.95;;;;;;;;;;5016954;28;20039;-67
2024/01/17 13:38:54;;;;;;;15.23;6.80;;;;;;;;;;5016961;28;20106;-67
2024/01/17 13:41:21;;;;;;;10.35;5.18;;;;;;;;;;5017046;28;20033;-67
2024/01/17 13:43:47;;;;;;;12.23;5.95;;;;;;;;;;5016716;28;20041;-67
2024/01/17 13:46:13;;;;;;;13.73;5.72;;;;;;;;;;5016126;28;20044;-67
2024/01/17 13:48:39;;;;;;;12.40;5.38;;;;;;;;;;5015236;28;21054;-67
2024/01/17 13:51:06;;;;;;;12.45;5.50;;;;;;;;;;5016873;28;20725;-67
2024/01/17 13:53:32;;;;;;;12.25;5.28;;;;;;;;;;5016532;28;20140;-66
2024/01/17 13:55:59;;;;;;;11.05;5.80;;;;;;;;;;5015544;28;20040;-67
2024/01/17 13:58:27;;;;;;;11.18;5.38;;;;;;;;;;5015485;28;20516;-67
2024/01/17 14:00:57;;;;;;;10.75;5.65;;;;;;;;;;5014989;28;20028;-67
2024/01/17 14:03:24;;;;;;;13.48;6.30;;;;;;;;;;5016332;28;20032;-67
2024/01/17 14:05:50;;;;;;;11.95;5.72;;;;;;;;;;5014388;28;20087;-67
2024/01/17 14:08:16;;;;;;;10.40;5.82;;;;;;;;;;5012578;28;20144;-67
2024/01/17 14:10:42;;;;;;;12.38;6.45;;;;;;;;;;5003807;28;20084;-67
2024/01/17 14:13:08;;;;;;;15.48;6.07;;;;;;;;;;4991170;28;20049;-67
2024/01/17 14:15:34;;;;;;;17.60;5.95;;;;;;;;;;5011332;28;20056;-66
2024/01/17 14:18:00;;;;;;;12.63;6.20;;;;;;;;;;5008740;28;20059;-66
2024/01/17 14:20:28;;;;;;;10.35;5.85;;;;;;;;;;5012848;28;20037;-66
2024/01/17 14:22:56;;;;;;;12.63;5.63;;;;;;;;;;5013763;28;20688;-66
2024/01/17 14:25:22;;;;;;;9.98;5.30;;;;;;;;;;5014973;28;21851;-67
2024/01/17 14:27:49;;;;;;;12.65;5.60;;;;;;;;;;4994957;28;20041;-67
2024/01/17 14:30:15;;;;;;;11.75;5.82;;;;;;;;;;5017495;28;20078;-66
2024/01/17 14:32:42;;;;;;;11.15;5.95;;;;;;;;;;5015454;28;20705;-66
2024/01/17 14:35:09;;;;;;;12.75;5.78;;;;;;;;;;5013219;28;20085;-66
2024/01/17 14:37:41;;;;;;;14.20;6.50;;;;;;;;;;5014729;28;20458;-66
2024/01/17 14:40:08;;;;;;;11.70;5.40;;;;;;;;;;5015019;28;20090;-66
2024/01/17 14:42:34;;;;;;;10.30;5.28;;;;;;;;;;5014902;28;20029;-66
2024/01/17 14:45:00;;;;;;;11.57;6.57;;;;;;;;;;4985676;28;20040;-67
2024/01/17 14:47:28;;;;;;;15.00;6.05;;;;;;;;;;4999511;28;20067;-67
2024/01/17 14:49:54;;;;;;;12.00;5.75;;;;;;;;;;5006487;28;20051;-67
2024/01/17 14:52:21;;;;;;;13.70;6.13;;;;;;;;;;5013077;28;20086;-67
2024/01/17 14:54:47;;;;;;;13.07;6.13;;;;;;;;;;5002423;28;20041;-66
2024/01/17 14:57:13;;;;;;;11.32;5.88;;;;;;;;;;5012649;28;20037;-66